createdAt,value
2023-03-07T00:02:52.292Z,25.27
2023-03-07T00:06:07.002Z,26.60
2023-03-07T00:09:10.057Z,28.15
2023-03-07T00:12:12.472Z,33.42
2023-03-07T00:15:14.753Z,36.50
2023-03-07T00:18:17.136Z,37.78
2023-03-07T00:21:21.304Z,33.63
2023-03-07T00:24:23.688Z,31.02
2023-03-07T00:27:26.041Z,30.27
2023-03-07T00:30:28.325Z,28.33
2023-03-07T00:33:30.803Z,26.90
2023-03-07T00:36:33.306Z,27.60
2023-03-07T00:42:36.938Z,29.42
2023-03-07T00:45:39.255Z,30.02
2023-03-07T00:48:41.764Z,31.52
2023-03-07T00:51:44.044Z,39.20
2023-03-07T00:54:46.407Z,30.95
2023-03-07T00:57:48.826Z,33.80
2023-03-07T01:00:51.558Z,28.27
2023-03-07T01:03:54.494Z,22.83
2023-03-07T01:06:56.890Z,22.20
2023-03-07T01:09:59.368Z,27.25
2023-03-07T01:13:01.769Z,29.10
2023-03-07T01:16:14.234Z,28.73
2023-03-07T01:19:17.668Z,32.30
2023-03-07T01:22:19.969Z,32.17
2023-03-07T01:25:22.560Z,29.73
2023-03-07T01:28:25.043Z,29.67
2023-03-07T01:31:28.015Z,29.67
2023-03-07T01:34:30.953Z,22.70
2023-03-07T01:37:33.415Z,25.52
2023-03-07T01:40:39.083Z,30.88
2023-03-07T01:43:42.436Z,32.00
2023-03-07T01:46:55.359Z,33.60
2023-03-07T01:50:12.644Z,32.00
2023-03-07T01:53:16.598Z,32.90
2023-03-07T01:56:21.502Z,32.92
2023-03-07T01:59:35.036Z,33.55
2023-03-07T02:02:40.261Z,32.83
2023-03-07T02:05:54.527Z,32.13
2023-03-07T02:08:57.567Z,29.73
2023-03-07T02:12:01.770Z,24.33
2023-03-07T02:15:05.979Z,31.15
2023-03-07T02:18:09.169Z,28.33
2023-03-07T02:21:24.863Z,30.85
2023-03-07T02:24:34.358Z,28.25
2023-03-07T02:27:37.877Z,27.88
2023-03-07T02:30:57.116Z,27.35
2023-03-07T02:34:00.876Z,26.70
2023-03-07T02:37:20.290Z,28.50
2023-03-07T02:40:25.465Z,29.45
2023-03-07T02:43:28.408Z,27.27
2023-03-07T02:46:30.868Z,28.75
2023-03-07T02:49:33.491Z,27.25
2023-03-07T02:52:35.847Z,34.42
2023-03-07T02:55:38.233Z,31.67
2023-03-07T02:58:41.691Z,33.50
2023-03-07T03:01:44.085Z,36.15
2023-03-07T03:04:46.689Z,29.52
2023-03-07T03:07:49.603Z,21.65
2023-03-07T03:10:55.396Z,26.98
2023-03-07T03:14:00.502Z,31.02
2023-03-07T03:17:04.569Z,28.95
2023-03-07T03:20:08.975Z,27.37
2023-03-07T03:23:11.454Z,30.17
2023-03-07T03:26:13.953Z,29.40
2023-03-07T03:29:16.361Z,28.98
2023-03-07T03:32:18.907Z,31.63
2023-03-07T03:35:21.301Z,25.30
2023-03-07T03:38:24.341Z,24.40
2023-03-07T03:41:27.271Z,23.33
2023-03-07T03:44:30.175Z,30.10
2023-03-07T03:47:33.384Z,31.38
2023-03-07T03:50:36.106Z,30.42
2023-03-07T03:53:39.863Z,26.20
2023-03-07T03:56:42.214Z,33.58
2023-03-07T03:59:45.510Z,31.65
2023-03-07T04:02:49.337Z,30.75
2023-03-07T04:05:53.655Z,33.25
2023-03-07T04:08:56.390Z,33.13
2023-03-07T04:11:58.937Z,29.88
2023-03-07T04:15:01.942Z,26.23
2023-03-07T04:18:04.492Z,36.22
2023-03-07T04:21:07.627Z,34.92
2023-03-07T04:24:10.522Z,36.65
2023-03-07T04:27:12.912Z,24.60
2023-03-07T04:30:15.546Z,31.02
2023-03-07T04:33:17.911Z,30.30
2023-03-07T04:36:20.693Z,30.63
2023-03-07T04:39:23.228Z,25.63
2023-03-07T04:42:27.309Z,31.23
2023-03-07T04:45:31.802Z,32.95
2023-03-07T04:48:34.370Z,32.65
2023-03-07T04:51:36.891Z,33.33
2023-03-07T04:57:43.912Z,32.45
2023-03-07T05:00:48.275Z,33.83
2023-03-07T05:03:50.933Z,36.45
2023-03-07T05:06:55.731Z,50.63
2023-03-07T05:09:58.177Z,29.50
2023-03-07T05:13:01.780Z,37.00
2023-03-07T05:16:04.448Z,26.58
2023-03-07T05:19:07.484Z,34.33
2023-03-07T05:22:09.983Z,37.10
2023-03-07T05:25:12.637Z,38.45
2023-03-07T05:28:17.086Z,39.13
2023-03-07T05:31:19.532Z,35.72
2023-03-07T05:34:22.511Z,30.45
2023-03-07T05:37:25.145Z,38.65
2023-03-07T05:40:27.892Z,29.17
2023-03-07T05:43:30.359Z,40.58
2023-03-07T05:46:33.207Z,39.38
2023-03-07T05:49:35.992Z,37.38
2023-03-07T05:52:38.768Z,42.05
2023-03-07T05:55:41.487Z,32.28
2023-03-07T05:58:44.274Z,47.50
2023-03-07T06:01:46.858Z,48.53
2023-03-07T06:04:49.772Z,50.10
2023-03-07T06:07:52.142Z,40.20
2023-03-07T06:10:55.053Z,42.15
2023-03-07T06:17:02.154Z,43.28
2023-03-07T06:20:04.963Z,43.13
2023-03-07T06:23:07.589Z,35.03
2023-03-07T06:26:12.497Z,41.35
2023-03-07T06:29:16.406Z,47.28
2023-03-07T06:32:18.734Z,41.30
2023-03-07T06:35:21.610Z,41.35
2023-03-07T06:38:25.994Z,39.80
2023-03-07T06:41:28.810Z,33.15
2023-03-07T06:44:33.482Z,37.95
2023-03-07T06:47:35.813Z,30.42
2023-03-07T06:50:39.622Z,31.83
2023-03-07T06:53:42.361Z,27.83
2023-03-07T06:56:45.635Z,28.00
2023-03-07T06:59:53.814Z,29.30
2023-03-07T07:02:56.524Z,26.67
2023-03-07T07:05:59.289Z,24.23
2023-03-07T07:09:02.007Z,26.27
2023-03-07T07:12:09.521Z,41.13
2023-03-07T07:15:12.314Z,25.45
2023-03-07T07:18:14.756Z,24.33
2023-03-07T07:21:18.361Z,36.80
2023-03-07T07:24:23.776Z,27.42
2023-03-07T07:27:28.672Z,32.63
2023-03-07T07:30:32.009Z,28.15
2023-03-07T07:33:35.890Z,25.92
2023-03-07T07:36:39.997Z,28.20
2023-03-07T07:39:44.027Z,29.27
2023-03-07T07:42:56.034Z,32.33
2023-03-07T07:46:13.956Z,28.48
2023-03-07T07:49:18.512Z,27.95
2023-03-07T07:52:21.548Z,25.15
2023-03-07T07:55:25.192Z,31.92
2023-03-07T07:58:27.868Z,26.13
2023-03-07T08:01:30.909Z,24.80
2023-03-07T08:04:33.495Z,31.77
2023-03-07T08:07:35.865Z,27.25
2023-03-07T08:10:43.135Z,27.27
2023-03-07T08:13:45.738Z,27.88
2023-03-07T08:16:48.174Z,27.60
2023-03-07T08:19:50.905Z,26.20
2023-03-07T08:22:54.033Z,24.77
2023-03-07T08:25:56.430Z,20.23
2023-03-07T08:28:59.099Z,23.83
2023-03-07T08:32:02.033Z,22.85
2023-03-07T08:35:04.592Z,17.93
2023-03-07T08:38:07.023Z,21.77
2023-03-07T08:41:09.987Z,24.77
2023-03-07T08:44:12.397Z,18.33
2023-03-07T08:47:14.958Z,24.83
2023-03-07T08:50:17.637Z,23.60
2023-03-07T08:53:20.368Z,20.33
2023-03-07T08:56:22.751Z,23.33
2023-03-07T08:59:25.229Z,25.30
2023-03-07T09:02:27.578Z,23.20
2023-03-07T09:05:30.545Z,24.33
2023-03-07T09:08:33.513Z,27.38
2023-03-07T09:11:36.205Z,17.73
2023-03-07T09:14:38.621Z,22.98
2023-03-07T09:17:41.101Z,19.65
2023-03-07T09:20:43.553Z,22.58
2023-03-07T09:23:45.991Z,21.75
2023-03-07T09:26:48.349Z,23.40
2023-03-07T09:29:50.940Z,22.20
2023-03-07T09:32:53.484Z,21.95
2023-03-07T09:35:55.984Z,27.90
2023-03-07T09:38:58.484Z,24.63
2023-03-07T09:42:22.565Z,20.65
2023-03-07T09:45:34.188Z,24.67
2023-03-07T09:48:51.426Z,25.42
2023-03-07T09:51:59.505Z,26.52
2023-03-07T09:55:16.767Z,23.30
2023-03-07T09:58:23.246Z,24.58
2023-03-07T10:01:27.677Z,23.20
2023-03-07T10:05:02.165Z,24.25
2023-03-07T10:08:05.566Z,27.15
2023-03-07T10:11:41.273Z,28.75
2023-03-07T10:15:03.824Z,24.55
2023-03-07T10:18:15.327Z,24.50
2023-03-07T10:21:40.804Z,25.55
2023-03-07T10:25:01.035Z,27.77
2023-03-07T10:28:18.249Z,29.08
2023-03-07T10:31:34.870Z,32.45
2023-03-07T10:34:38.167Z,26.75
2023-03-07T10:37:56.701Z,33.03
2023-03-07T10:41:12.746Z,34.38
2023-03-07T10:44:19.319Z,33.13
2023-03-07T10:47:28.928Z,34.58
2023-03-07T10:50:41.029Z,45.60
2023-03-07T10:53:43.459Z,32.55
2023-03-07T10:57:16.510Z,37.00
2023-03-07T11:00:19.351Z,33.47
2023-03-07T11:03:31.238Z,29.43
2023-03-07T11:06:44.783Z,37.20
2023-03-07T11:09:48.624Z,33.13
2023-03-07T11:16:12.043Z,35.08
2023-03-07T11:19:45.534Z,34.88
2023-03-07T11:22:48.079Z,35.88
2023-03-07T11:25:55.010Z,35.55
2023-03-07T11:29:12.225Z,35.22
2023-03-07T11:32:33.015Z,36.35
2023-03-07T11:35:43.754Z,36.30
2023-03-07T11:39:01.842Z,46.15
2023-03-07T11:42:15.904Z,38.85
2023-03-07T11:45:35.729Z,46.15
2023-03-07T11:49:02.338Z,42.55
2023-03-07T11:52:19.621Z,39.83
2023-03-07T11:55:46.644Z,38.75
2023-03-07T11:59:00.982Z,42.25
2023-03-07T12:02:13.446Z,36.28
2023-03-07T12:06:00.148Z,39.22
2023-03-07T12:09:20.294Z,37.60
2023-03-07T12:12:52.041Z,41.53
2023-03-07T12:15:57.266Z,39.75
2023-03-07T12:19:46.045Z,35.97
2023-03-07T12:23:00.724Z,39.30
2023-03-07T12:26:22.582Z,39.20
2023-03-07T12:29:27.860Z,41.88
2023-03-07T12:32:33.036Z,45.42
2023-03-07T12:35:45.873Z,43.63
2023-03-07T12:38:53.678Z,57.25
2023-03-07T12:42:01.933Z,39.72
2023-03-07T12:45:11.074Z,36.95
2023-03-07T12:48:23.523Z,39.45
2023-03-07T12:51:29.914Z,44.08
2023-03-07T12:54:40.437Z,52.88
2023-03-07T12:57:45.256Z,78.50
2023-03-07T13:00:57.109Z,68.40
2023-03-07T13:04:18.648Z,34.92
2023-03-07T13:07:25.364Z,31.85
2023-03-07T13:10:28.064Z,32.10
2023-03-07T13:13:45.585Z,29.50
2023-03-07T13:16:49.684Z,31.77
2023-03-07T13:19:54.375Z,26.42
2023-03-07T13:22:59.837Z,29.85
2023-03-07T13:26:05.688Z,28.00
2023-03-07T13:29:09.416Z,27.90
2023-03-07T13:32:50.232Z,28.65
2023-03-07T13:35:57.923Z,27.77
2023-03-07T13:39:00.991Z,27.80
2023-03-07T13:42:03.726Z,33.90
2023-03-07T13:45:38.160Z,29.52
2023-03-07T13:48:40.378Z,29.13
2023-03-07T13:52:31.591Z,29.90
2023-03-07T13:55:41.253Z,31.73
2023-03-07T13:58:57.594Z,27.27
2023-03-07T14:02:04.352Z,29.50
2023-03-07T14:05:07.153Z,27.38
2023-03-07T14:08:14.194Z,32.72
2023-03-07T14:11:42.778Z,37.08
2023-03-07T14:15:05.700Z,29.75
2023-03-07T14:18:23.008Z,31.65
2023-03-07T14:21:46.848Z,33.55
2023-03-07T14:25:25.173Z,26.02
2023-03-07T14:28:28.824Z,29.60
2023-03-07T14:31:53.210Z,29.27
2023-03-07T14:34:55.852Z,27.20
2023-03-07T14:37:58.609Z,31.23
2023-03-07T14:41:09.538Z,29.30
2023-03-07T14:44:42.162Z,32.15
2023-03-07T14:47:44.490Z,32.05
2023-03-07T14:50:47.423Z,30.77
2023-03-07T14:53:50.564Z,36.20
2023-03-07T14:56:54.557Z,31.40
2023-03-07T15:03:25.663Z,36.65
2023-03-07T15:06:30.319Z,37.92
2023-03-07T15:09:34.115Z,36.35
2023-03-07T15:12:36.622Z,30.23
2023-03-07T15:15:46.334Z,32.00
2023-03-07T15:18:55.758Z,35.85
2023-03-07T15:22:00.883Z,42.72
2023-03-07T15:25:04.428Z,44.80
2023-03-07T15:28:19.290Z,44.75
2023-03-07T15:31:23.864Z,36.50
2023-03-07T15:34:30.727Z,44.08
2023-03-07T15:37:33.875Z,37.33
2023-03-07T15:40:37.588Z,35.17
2023-03-07T15:43:39.954Z,41.17
2023-03-07T15:46:51.804Z,47.13
2023-03-07T15:49:57.143Z,42.90
2023-03-07T15:53:06.381Z,36.17
2023-03-07T15:56:22.442Z,33.47
2023-03-07T15:59:39.322Z,36.30
2023-03-07T16:02:47.099Z,41.72
2023-03-07T16:05:49.972Z,35.67
2023-03-07T16:08:52.419Z,30.02
2023-03-07T16:11:55.029Z,27.85
2023-03-07T16:14:57.473Z,28.30
2023-03-07T16:18:00.010Z,28.33
2023-03-07T16:21:03.437Z,29.55
2023-03-07T16:24:06.355Z,27.20
2023-03-07T16:27:18.538Z,31.63
2023-03-07T16:30:24.142Z,30.08
2023-03-07T16:33:26.811Z,32.63
2023-03-07T16:36:29.352Z,34.38
2023-03-07T16:39:32.707Z,37.92
2023-03-07T16:45:40.181Z,62.00
2023-03-07T16:48:43.387Z,70.38
2023-03-07T16:51:53.260Z,53.80
2023-03-07T16:55:02.366Z,96.75
2023-03-07T16:58:05.916Z,49.97
2023-03-07T17:01:12.918Z,35.58
2023-03-07T17:04:15.673Z,30.83
2023-03-07T17:07:22.096Z,30.33
2023-03-07T17:10:29.100Z,29.33
2023-03-07T17:13:31.534Z,29.95
2023-03-07T17:16:36.726Z,26.77
2023-03-07T17:19:39.257Z,26.95
2023-03-07T17:22:41.706Z,31.60
2023-03-07T17:25:44.039Z,28.65
2023-03-07T17:28:46.518Z,26.17
2023-03-07T17:31:48.936Z,30.95
2023-03-07T17:34:51.412Z,25.75
2023-03-07T17:37:53.850Z,28.10
2023-03-07T17:40:57.053Z,35.05
2023-03-07T17:43:59.519Z,17.70
2023-03-07T17:47:01.908Z,20.13
2023-03-07T17:50:05.822Z,11.60
2023-03-07T17:53:08.308Z,8.90
2023-03-07T17:56:16.409Z,9.23
2023-03-07T17:59:18.765Z,6.97
2023-03-07T18:02:21.190Z,6.05
2023-03-07T18:05:26.111Z,6.95
2023-03-07T18:08:31.592Z,7.63
2023-03-07T18:11:35.308Z,6.95
2023-03-07T18:14:38.478Z,9.50
2023-03-07T18:17:47.719Z,7.05
2023-03-07T18:21:05.103Z,6.97
2023-03-07T18:24:29.069Z,7.93
2023-03-07T18:27:31.462Z,8.05
2023-03-07T18:30:34.263Z,9.85
2023-03-07T18:33:37.709Z,10.27
2023-03-07T18:36:41.390Z,4.88
2023-03-07T18:39:43.839Z,4.65
2023-03-07T18:42:46.255Z,4.05
2023-03-07T18:45:48.606Z,4.03
2023-03-07T18:48:51.809Z,2.83
2023-03-07T18:51:54.296Z,3.03
2023-03-07T18:54:56.757Z,5.82
2023-03-07T18:58:00.053Z,10.52
2023-03-07T19:01:13.694Z,7.07
2023-03-07T19:04:16.561Z,7.80
2023-03-07T19:07:18.937Z,5.10
2023-03-07T19:10:21.283Z,3.75
2023-03-07T19:13:23.623Z,6.22
2023-03-07T19:16:29.900Z,7.65
2023-03-07T19:19:32.337Z,7.18
2023-03-07T19:22:34.917Z,4.97
2023-03-07T19:25:37.437Z,8.93
2023-03-07T19:28:40.676Z,4.35
2023-03-07T19:31:46.109Z,3.80
2023-03-07T19:34:51.215Z,5.40
2023-03-07T19:37:53.537Z,4.90
2023-03-07T19:40:57.058Z,5.20
2023-03-07T19:44:00.723Z,5.32
2023-03-07T19:47:03.162Z,6.13
2023-03-07T19:50:05.876Z,7.15
2023-03-07T19:53:08.224Z,9.18
2023-03-07T19:56:12.346Z,9.55
2023-03-07T19:59:15.057Z,8.70
2023-03-07T20:02:17.447Z,7.28
2023-03-07T20:05:20.272Z,8.13
2023-03-07T20:08:22.650Z,9.45
2023-03-07T20:11:30.290Z,8.10
2023-03-07T20:14:32.586Z,8.70
2023-03-07T20:17:34.991Z,8.35
2023-03-07T20:20:37.603Z,8.60
2023-03-07T20:23:40.531Z,8.15
2023-03-07T20:26:42.973Z,9.50
2023-03-07T20:29:45.280Z,9.48
2023-03-07T20:32:48.207Z,10.45
2023-03-07T20:36:04.932Z,9.47
2023-03-07T20:39:13.137Z,10.35
2023-03-07T20:42:15.664Z,9.88
2023-03-07T20:45:18.073Z,9.68
2023-03-07T20:48:20.682Z,11.32
2023-03-07T20:51:25.247Z,14.13
2023-03-07T20:54:27.623Z,15.60
2023-03-07T20:57:30.083Z,11.38
2023-03-07T21:00:32.381Z,12.52
2023-03-07T21:03:35.342Z,10.85
2023-03-07T21:06:39.946Z,10.30
2023-03-07T21:09:42.346Z,10.65
2023-03-07T21:12:44.696Z,11.52
2023-03-07T21:15:56.944Z,17.48
2023-03-07T21:19:01.626Z,12.40
2023-03-07T21:22:04.489Z,10.85
2023-03-07T21:25:07.384Z,11.27
2023-03-07T21:28:09.719Z,11.23
2023-03-07T21:31:14.876Z,11.65
2023-03-07T21:34:17.277Z,12.30
2023-03-07T21:37:20.720Z,16.15
2023-03-07T21:40:23.230Z,13.48
2023-03-07T21:43:25.740Z,13.55
2023-03-07T21:46:28.388Z,13.40
2023-03-07T21:49:31.841Z,15.20
2023-03-07T21:52:34.172Z,14.10
2023-03-07T21:55:36.731Z,13.50
2023-03-07T21:58:39.802Z,12.10
2023-03-07T22:01:42.192Z,9.95
2023-03-07T22:04:44.901Z,13.43
2023-03-07T22:07:49.036Z,14.40
2023-03-07T22:11:00.543Z,12.70
2023-03-07T22:14:03.449Z,12.57
2023-03-07T22:17:05.984Z,13.48
2023-03-07T22:20:10.387Z,16.73
2023-03-07T22:23:12.733Z,18.50
2023-03-07T22:26:15.962Z,22.33
2023-03-07T22:29:18.272Z,18.52
2023-03-07T22:32:20.630Z,15.32
2023-03-07T22:35:23.091Z,12.55
2023-03-07T22:38:25.843Z,12.65
2023-03-07T22:41:28.912Z,12.88
2023-03-07T22:44:31.325Z,13.57
2023-03-07T22:47:34.700Z,13.48
2023-03-07T22:50:39.327Z,12.35
2023-03-07T22:53:41.712Z,13.50
2023-03-07T22:56:44.072Z,13.13
2023-03-07T22:59:48.591Z,13.05
2023-03-07T23:02:50.970Z,13.40
2023-03-07T23:05:53.398Z,14.32
2023-03-07T23:08:56.549Z,14.75
2023-03-07T23:11:59.054Z,12.73
2023-03-07T23:15:01.480Z,13.55
2023-03-07T23:18:03.993Z,13.57
2023-03-07T23:21:07.622Z,12.20
2023-03-07T23:24:11.422Z,13.32
2023-03-07T23:30:17.862Z,13.05
2023-03-07T23:33:20.285Z,13.02
2023-03-07T23:36:22.664Z,11.80
2023-03-07T23:39:26.121Z,12.60
2023-03-07T23:42:28.645Z,10.70
2023-03-07T23:45:31.323Z,11.73
2023-03-07T23:48:33.663Z,12.00
2023-03-07T23:51:36.003Z,10.20
2023-03-07T23:54:38.453Z,11.57
2023-03-07T23:57:41.192Z,11.60
